Terminal Aerodrome Forecast
Issued by NWS

Home | Current Version | Previous Version | Text Only | Print | Product List | Glossary On
Versions: 1 2 3 4 5 6 7 8 9 10 11 12 13 14 15 16 17 18 19 20 21 22 23 24 25 26 27 28 29 30 31 32 33 34 35 36 37
000
FTPQ31 PGUM 012333
TAFGUM
TAF

TAF
PGWT 012333Z 0200/0224 03007KT P6SM VCSH FEW010 SCT025 BKN080
      TEMPO 0200/0203 01025G35KT 3SM +SHRA BKN020 OVC040
     FM020300 35025G35KT 5SM SHRA VCTS SCT006 BKN020CB OVC040
     FM020700 35045G65KT 1SM +SHRA VCTS BKN006CB OVC015
     FM021000 35055G75KT 1SM +SHRA VCTS BKN006CB OVC015
     FM021500 21025G45KT 3SM +SHRA VCTS SCT006CB BKN015 OVC040=

USA.gov is the U.S. government's official web portal to all federal, state and local government web resources and services.